SWA739 KSAN-KLAS
Flight info
| Callsign | SWA739 |
|---|---|
| Flight time | 0h 57m |
| Altitude | 29000 |
| Route | PADRZ2 CHKNN SEBBY YELAH MISEN RNDRZ4 |
| Aircraft | B738/M-SADE2E3GIJ4RWZ/LB1D1 |
Departure
| Time | 2026-05-06 20:33 |
|---|---|
| Airport | San Diego International Airport (KSAN) |
Arrival
| Time | 2026-05-06 21:31 |
|---|---|
| Airport | Harry Reid International Airport (KLAS) |
| Time | Latitude | Longitude | Altitude | Speed | Heading |
|---|---|---|---|---|---|
| 2026-05-06 20:06 | 32.73386 | -117.19858 | 23 ft | 0 kts | 175° |
| 2026-05-06 20:25 | 32.73392 | -117.19859 | 23 ft | 2 kts | 175° |
| 2026-05-06 20:25 | 32.73407 | -117.19860 | 23 ft | 2 kts | 174° |
| 2026-05-06 20:25 | 32.73422 | -117.19862 | 23 ft | 2 kts | 175° |
| 2026-05-06 20:26 | 32.73437 | -117.19864 | 23 ft | 2 kts | 175° |
| 2026-05-06 20:26 | 32.73451 | -117.19865 | 23 ft | 0 kts | 175° |
| 2026-05-06 20:26 | 32.73461 | -117.19867 | 23 ft | 2 kts | 155° |
| 2026-05-06 20:26 | 32.73473 | -117.19878 | 23 ft | 2 kts | 124° |
| 2026-05-06 20:27 | 32.73477 | -117.19888 | 23 ft | 1 kts | 106° |
| 2026-05-06 20:27 | 32.73479 | -117.19894 | 23 ft | 0 kts | 105° |
| 2026-05-06 20:29 | 32.73470 | -117.19859 | 23 ft | 11 kts | 107° |
| 2026-05-06 20:30 | 32.73441 | -117.19743 | 23 ft | 16 kts | 106° |
| 2026-05-06 20:30 | 32.73365 | -117.19432 | 24 ft | 22 kts | 106° |
| 2026-05-06 20:30 | 32.73320 | -117.19245 | 24 ft | 25 kts | 106° |
| 2026-05-06 20:31 | 32.73269 | -117.19033 | 24 ft | 30 kts | 107° |
| 2026-05-06 20:31 | 32.73199 | -117.18745 | 24 ft | 39 kts | 106° |
| 2026-05-06 20:31 | 32.73126 | -117.18439 | 24 ft | 38 kts | 106° |
| 2026-05-06 20:31 | 32.73052 | -117.18136 | 25 ft | 37 kts | 106° |
| 2026-05-06 20:32 | 32.72988 | -117.17872 | 25 ft | 27 kts | 106° |
| 2026-05-06 20:32 | 32.72951 | -117.17683 | 26 ft | 21 kts | 82° |
| 2026-05-06 20:32 | 32.73002 | -117.17553 | 27 ft | 8 kts | 359° |
| 2026-05-06 20:32 | 32.73039 | -117.17658 | 27 ft | 35 kts | 285° |
| 2026-05-06 20:33 | 32.73173 | -117.18216 | 25 ft | 102 kts | 286° |
| 2026-05-06 20:33 | 32.73421 | -117.19231 | 27 ft | 154 kts | 286° |
| 2026-05-06 20:33 | 32.73727 | -117.20458 | 611 ft | 154 kts | 287° |
| 2026-05-06 20:33 | 32.74160 | -117.21616 | 1135 ft | 159 kts | 307° |
| 2026-05-06 20:34 | 32.74894 | -117.22723 | 1383 ft | 180 kts | 306° |
| 2026-05-06 20:34 | 32.75620 | -117.24023 | 1664 ft | 199 kts | 302° |
| 2026-05-06 20:34 | 32.76390 | -117.25452 | 2142 ft | 210 kts | 304° |
| 2026-05-06 20:34 | 32.77190 | -117.26900 | 2804 ft | 213 kts | 305° |
| 2026-05-06 20:35 | 32.78016 | -117.28380 | 3383 ft | 220 kts | 305° |
| 2026-05-06 20:35 | 32.78903 | -117.29963 | 3722 ft | 239 kts | 306° |
| 2026-05-06 20:35 | 32.79852 | -117.31654 | 4126 ft | 255 kts | 306° |
| 2026-05-06 20:35 | 32.80911 | -117.33402 | 4655 ft | 264 kts | 310° |
| 2026-05-06 20:36 | 32.82041 | -117.35133 | 5303 ft | 271 kts | 311° |
| 2026-05-06 20:36 | 32.83196 | -117.36882 | 6204 ft | 274 kts | 311° |
| 2026-05-06 20:36 | 32.84360 | -117.38642 | 7170 ft | 274 kts | 311° |
| 2026-05-06 20:36 | 32.85539 | -117.40429 | 7979 ft | 281 kts | 312° |
| 2026-05-06 20:37 | 32.86734 | -117.42262 | 8872 ft | 283 kts | 311° |
| 2026-05-06 20:37 | 32.87914 | -117.44128 | 9794 ft | 283 kts | 311° |
| 2026-05-06 20:37 | 32.89098 | -117.45992 | 10541 ft | 289 kts | 312° |
| 2026-05-06 20:37 | 32.90351 | -117.47938 | 11073 ft | 304 kts | 312° |
| 2026-05-06 20:38 | 32.91676 | -117.49988 | 11562 ft | 319 kts | 312° |
| 2026-05-06 20:38 | 32.93040 | -117.52100 | 12076 ft | 333 kts | 312° |
| 2026-05-06 20:38 | 32.94488 | -117.54347 | 12536 ft | 349 kts | 312° |
| 2026-05-06 20:38 | 32.95979 | -117.56664 | 13064 ft | 360 kts | 311° |
| 2026-05-06 20:39 | 32.97514 | -117.59059 | 13804 ft | 365 kts | 311° |
| 2026-05-06 20:39 | 32.99057 | -117.61473 | 14584 ft | 368 kts | 311° |
| 2026-05-06 20:39 | 33.00593 | -117.63879 | 15330 ft | 371 kts | 312° |
| 2026-05-06 20:39 | 33.02166 | -117.66341 | 15986 ft | 376 kts | 311° |
| 2026-05-06 20:40 | 33.03765 | -117.68842 | 16629 ft | 382 kts | 312° |
| 2026-05-06 20:40 | 33.05404 | -117.71342 | 17279 ft | 384 kts | 313° |
| 2026-05-06 20:40 | 33.07165 | -117.73717 | 17900 ft | 385 kts | 319° |
| 2026-05-06 20:40 | 33.09117 | -117.75928 | 18579 ft | 386 kts | 323° |
| 2026-05-06 20:41 | 33.11132 | -117.77992 | 19251 ft | 388 kts | 325° |
| 2026-05-06 20:41 | 33.13227 | -117.80062 | 19894 ft | 391 kts | 325° |
| 2026-05-06 20:41 | 33.15321 | -117.82130 | 20577 ft | 393 kts | 325° |
| 2026-05-06 20:41 | 33.17407 | -117.84206 | 21132 ft | 397 kts | 325° |
| 2026-05-06 20:42 | 33.19549 | -117.86353 | 21733 ft | 400 kts | 325° |
| 2026-05-06 20:42 | 33.21685 | -117.88472 | 22330 ft | 402 kts | 325° |
| 2026-05-06 20:42 | 33.23829 | -117.90562 | 22907 ft | 404 kts | 326° |
| 2026-05-06 20:42 | 33.26027 | -117.92689 | 23454 ft | 407 kts | 326° |
| 2026-05-06 20:43 | 33.28247 | -117.94835 | 23953 ft | 411 kts | 326° |
| 2026-05-06 20:43 | 33.30458 | -117.96977 | 24457 ft | 414 kts | 326° |
| 2026-05-06 20:43 | 33.32686 | -117.99143 | 24980 ft | 417 kts | 326° |
| 2026-05-06 20:43 | 33.34963 | -118.01358 | 25443 ft | 421 kts | 326° |
| 2026-05-06 20:44 | 33.37239 | -118.03579 | 25913 ft | 424 kts | 326° |
| 2026-05-06 20:44 | 33.39513 | -118.05803 | 26409 ft | 427 kts | 326° |
| 2026-05-06 20:44 | 33.41826 | -118.08067 | 26834 ft | 430 kts | 326° |
| 2026-05-06 20:44 | 33.44136 | -118.10331 | 27322 ft | 432 kts | 326° |
| 2026-05-06 20:45 | 33.46434 | -118.12587 | 27947 ft | 430 kts | 326° |
| 2026-05-06 20:45 | 33.48740 | -118.14855 | 28517 ft | 429 kts | 327° |
| 2026-05-06 20:45 | 33.51059 | -118.17139 | 29018 ft | 428 kts | 327° |
| 2026-05-06 20:46 | 33.55674 | -118.21621 | 29091 ft | 423 kts | 328° |
| 2026-05-06 20:46 | 33.60567 | -118.25388 | 29087 ft | 416 kts | 338° |
| 2026-05-06 20:47 | 33.65897 | -118.27798 | 29085 ft | 405 kts | 355° |
| 2026-05-06 20:47 | 33.71451 | -118.27823 | 29091 ft | 397 kts | 9° |
| 2026-05-06 20:48 | 33.76806 | -118.26418 | 29085 ft | 392 kts | 24° |
| 2026-05-06 20:48 | 33.81383 | -118.22968 | 29083 ft | 389 kts | 40° |
| 2026-05-06 20:49 | 33.85176 | -118.18317 | 29083 ft | 390 kts | 50° |
| 2026-05-06 20:49 | 33.88343 | -118.13050 | 29087 ft | 391 kts | 53° |
| 2026-05-06 20:50 | 33.91421 | -118.07675 | 29083 ft | 391 kts | 53° |
| 2026-05-06 20:50 | 33.94528 | -118.02316 | 29088 ft | 390 kts | 53° |
| 2026-05-06 20:51 | 33.97675 | -117.96945 | 29085 ft | 391 kts | 53° |
| 2026-05-06 20:51 | 34.00804 | -117.91626 | 29088 ft | 391 kts | 53° |
| 2026-05-06 20:52 | 34.03959 | -117.86261 | 29090 ft | 391 kts | 53° |
| 2026-05-06 20:52 | 34.07107 | -117.80909 | 29098 ft | 392 kts | 53° |
| 2026-05-06 20:53 | 34.10284 | -117.75603 | 29103 ft | 390 kts | 51° |
| 2026-05-06 20:53 | 34.13704 | -117.70570 | 29104 ft | 389 kts | 49° |
| 2026-05-06 20:54 | 34.17209 | -117.65578 | 29110 ft | 390 kts | 48° |
| 2026-05-06 20:54 | 34.20713 | -117.60532 | 29114 ft | 391 kts | 49° |
| 2026-05-06 20:55 | 34.24253 | -117.55576 | 29120 ft | 391 kts | 47° |
| 2026-05-06 20:55 | 34.27961 | -117.50761 | 29123 ft | 390 kts | 46° |
| 2026-05-06 20:56 | 34.31664 | -117.45959 | 29121 ft | 390 kts | 46° |
| 2026-05-06 20:56 | 34.35319 | -117.41167 | 29130 ft | 390 kts | 46° |
| 2026-05-06 20:57 | 34.38982 | -117.36327 | 29134 ft | 391 kts | 46° |
| 2026-05-06 20:57 | 34.42654 | -117.31454 | 29138 ft | 392 kts | 47° |
| 2026-05-06 20:58 | 34.46320 | -117.26580 | 29131 ft | 391 kts | 47° |
| 2026-05-06 20:58 | 34.49964 | -117.21725 | 29123 ft | 390 kts | 47° |
| 2026-05-06 20:59 | 34.53638 | -117.16822 | 29121 ft | 393 kts | 47° |
| 2026-05-06 20:59 | 34.57302 | -117.11930 | 29117 ft | 393 kts | 47° |
| 2026-05-06 21:00 | 34.60968 | -117.07024 | 29108 ft | 392 kts | 47° |
| 2026-05-06 21:00 | 34.64623 | -117.02123 | 29111 ft | 391 kts | 47° |
| 2026-05-06 21:01 | 34.68254 | -116.97251 | 29112 ft | 390 kts | 47° |
| 2026-05-06 21:01 | 34.71782 | -116.92512 | 29102 ft | 388 kts | 47° |
| 2026-05-06 21:02 | 34.75398 | -116.87648 | 29105 ft | 391 kts | 47° |
| 2026-05-06 21:02 | 34.79068 | -116.82706 | 29113 ft | 392 kts | 47° |
| 2026-05-06 21:03 | 34.82688 | -116.77819 | 29119 ft | 391 kts | 47° |
| 2026-05-06 21:03 | 34.86337 | -116.72890 | 29109 ft | 391 kts | 47° |
| 2026-05-06 21:04 | 34.89965 | -116.67981 | 29096 ft | 392 kts | 47° |
| 2026-05-06 21:04 | 34.93616 | -116.63030 | 29084 ft | 392 kts | 47° |
| 2026-05-06 21:05 | 34.97236 | -116.58119 | 29069 ft | 393 kts | 47° |
| 2026-05-06 21:05 | 35.00881 | -116.53168 | 29063 ft | 392 kts | 47° |
| 2026-05-06 21:06 | 35.04525 | -116.48208 | 29061 ft | 392 kts | 47° |
| 2026-05-06 21:06 | 35.08154 | -116.43262 | 29054 ft | 392 kts | 47° |
| 2026-05-06 21:07 | 35.11807 | -116.38313 | 28864 ft | 391 kts | 46° |
| 2026-05-06 21:07 | 35.13647 | -116.35913 | 28583 ft | 382 kts | 45° |
| 2026-05-06 21:07 | 35.15449 | -116.33598 | 28201 ft | 375 kts | 46° |
| 2026-05-06 21:07 | 35.17247 | -116.31294 | 27729 ft | 372 kts | 46° |
| 2026-05-06 21:08 | 35.19017 | -116.29024 | 27246 ft | 370 kts | 46° |
| 2026-05-06 21:08 | 35.20777 | -116.26762 | 26766 ft | 369 kts | 46° |
| 2026-05-06 21:08 | 35.22552 | -116.24474 | 26271 ft | 368 kts | 46° |
| 2026-05-06 21:08 | 35.24274 | -116.22201 | 25792 ft | 367 kts | 47° |
| 2026-05-06 21:09 | 35.25981 | -116.19881 | 25299 ft | 367 kts | 47° |
| 2026-05-06 21:09 | 35.27653 | -116.17578 | 24811 ft | 366 kts | 47° |
| 2026-05-06 21:09 | 35.29346 | -116.15240 | 24310 ft | 365 kts | 47° |
| 2026-05-06 21:09 | 35.31009 | -116.12945 | 23821 ft | 364 kts | 47° |
| 2026-05-06 21:10 | 35.32697 | -116.10617 | 23332 ft | 362 kts | 47° |
| 2026-05-06 21:10 | 35.34372 | -116.08310 | 22841 ft | 361 kts | 47° |
| 2026-05-06 21:10 | 35.36016 | -116.06047 | 22356 ft | 360 kts | 47° |
| 2026-05-06 21:10 | 35.37688 | -116.03746 | 21866 ft | 358 kts | 47° |
| 2026-05-06 21:11 | 35.39318 | -116.01501 | 21385 ft | 353 kts | 47° |
| 2026-05-06 21:11 | 35.40937 | -115.99270 | 20911 ft | 349 kts | 47° |
| 2026-05-06 21:11 | 35.42545 | -115.97053 | 20430 ft | 345 kts | 47° |
| 2026-05-06 21:11 | 35.44133 | -115.94865 | 19950 ft | 342 kts | 47° |
| 2026-05-06 21:12 | 35.45683 | -115.92726 | 19478 ft | 338 kts | 47° |
| 2026-05-06 21:12 | 35.47234 | -115.90583 | 19009 ft | 335 kts | 47° |
| 2026-05-06 21:12 | 35.48773 | -115.88457 | 18531 ft | 332 kts | 47° |
| 2026-05-06 21:12 | 35.50292 | -115.86355 | 18059 ft | 329 kts | 47° |
| 2026-05-06 21:13 | 35.51798 | -115.84271 | 17589 ft | 326 kts | 47° |
| 2026-05-06 21:13 | 35.53286 | -115.82211 | 17123 ft | 323 kts | 47° |
| 2026-05-06 21:13 | 35.54767 | -115.80159 | 16652 ft | 320 kts | 47° |
| 2026-05-06 21:13 | 35.56227 | -115.78135 | 16340 ft | 313 kts | 47° |
| 2026-05-06 21:14 | 35.57638 | -115.76178 | 16183 ft | 301 kts | 46° |
| 2026-05-06 21:14 | 35.58996 | -115.74293 | 16026 ft | 290 kts | 46° |
| 2026-05-06 21:14 | 35.60341 | -115.72450 | 16008 ft | 285 kts | 46° |
| 2026-05-06 21:14 | 35.61695 | -115.70628 | 16020 ft | 290 kts | 45° |
| 2026-05-06 21:15 | 35.63059 | -115.68800 | 16025 ft | 291 kts | 45° |
| 2026-05-06 21:15 | 35.64418 | -115.66973 | 16028 ft | 292 kts | 46° |
| 2026-05-06 21:15 | 35.65790 | -115.65122 | 16029 ft | 292 kts | 46° |
| 2026-05-06 21:15 | 35.67148 | -115.63287 | 16030 ft | 292 kts | 46° |
| 2026-05-06 21:16 | 35.68513 | -115.61439 | 16033 ft | 291 kts | 45° |
| 2026-05-06 21:16 | 35.69877 | -115.59593 | 16033 ft | 291 kts | 46° |
| 2026-05-06 21:16 | 35.71243 | -115.57754 | 16039 ft | 291 kts | 45° |
| 2026-05-06 21:16 | 35.72678 | -115.55998 | 16042 ft | 291 kts | 39° |
| 2026-05-06 21:17 | 35.74289 | -115.54501 | 16044 ft | 289 kts | 32° |
| 2026-05-06 21:17 | 35.76020 | -115.53229 | 16047 ft | 290 kts | 28° |
| 2026-05-06 21:17 | 35.77791 | -115.52033 | 16050 ft | 290 kts | 28° |
| 2026-05-06 21:17 | 35.79556 | -115.50846 | 16056 ft | 289 kts | 28° |
| 2026-05-06 21:18 | 35.81320 | -115.49637 | 16061 ft | 291 kts | 29° |
| 2026-05-06 21:18 | 35.83072 | -115.48415 | 15988 ft | 287 kts | 29° |
| 2026-05-06 21:18 | 35.84795 | -115.47207 | 15697 ft | 284 kts | 29° |
| 2026-05-06 21:18 | 35.86507 | -115.46004 | 15311 ft | 284 kts | 29° |
| 2026-05-06 21:19 | 35.88216 | -115.44801 | 14921 ft | 286 kts | 29° |
| 2026-05-06 21:19 | 35.89952 | -115.43580 | 14547 ft | 288 kts | 29° |
| 2026-05-06 21:19 | 35.91712 | -115.42345 | 14143 ft | 288 kts | 28° |
| 2026-05-06 21:19 | 35.93443 | -115.41136 | 13750 ft | 285 kts | 28° |
| 2026-05-06 21:20 | 35.95164 | -115.39938 | 13363 ft | 283 kts | 28° |
| 2026-05-06 21:20 | 35.96863 | -115.38752 | 12993 ft | 279 kts | 28° |
| 2026-05-06 21:20 | 35.98521 | -115.37589 | 12630 ft | 276 kts | 29° |
| 2026-05-06 21:20 | 36.00067 | -115.36200 | 12257 ft | 276 kts | 42° |
| 2026-05-06 21:21 | 36.01133 | -115.34179 | 11874 ft | 286 kts | 67° |
| 2026-05-06 21:21 | 36.01445 | -115.31750 | 11510 ft | 292 kts | 87° |
| 2026-05-06 21:21 | 36.01333 | -115.29251 | 11118 ft | 292 kts | 90° |
| 2026-05-06 21:21 | 36.01195 | -115.26794 | 10735 ft | 290 kts | 89° |
| 2026-05-06 21:22 | 36.01069 | -115.24309 | 10353 ft | 289 kts | 90° |
| 2026-05-06 21:22 | 36.00949 | -115.21821 | 9970 ft | 288 kts | 90° |
| 2026-05-06 21:22 | 36.00830 | -115.19380 | 9706 ft | 283 kts | 90° |
| 2026-05-06 21:22 | 36.00711 | -115.17011 | 9604 ft | 272 kts | 90° |
| 2026-05-06 21:23 | 36.00596 | -115.14741 | 9521 ft | 260 kts | 90° |
| 2026-05-06 21:23 | 36.00484 | -115.12549 | 9430 ft | 249 kts | 90° |
| 2026-05-06 21:23 | 36.00379 | -115.10453 | 9297 ft | 241 kts | 90° |
| 2026-05-06 21:23 | 36.00277 | -115.08400 | 8968 ft | 243 kts | 90° |
| 2026-05-06 21:24 | 36.00172 | -115.06303 | 8658 ft | 243 kts | 90° |
| 2026-05-06 21:24 | 36.00068 | -115.04219 | 8360 ft | 244 kts | 90° |
| 2026-05-06 21:24 | 35.99965 | -115.02161 | 8081 ft | 243 kts | 90° |
| 2026-05-06 21:24 | 35.99869 | -115.00092 | 7840 ft | 243 kts | 89° |
| 2026-05-06 21:25 | 35.99852 | -114.97997 | 7403 ft | 246 kts | 87° |
| 2026-05-06 21:25 | 35.99870 | -114.95888 | 7068 ft | 240 kts | 86° |
| 2026-05-06 21:25 | 35.99948 | -114.93904 | 6824 ft | 230 kts | 80° |
| 2026-05-06 21:25 | 36.00452 | -114.92098 | 6534 ft | 217 kts | 52° |
| 2026-05-06 21:26 | 36.01566 | -114.90939 | 6237 ft | 210 kts | 28° |
| 2026-05-06 21:26 | 36.02893 | -114.90202 | 5930 ft | 210 kts | 14° |
| 2026-05-06 21:26 | 36.04351 | -114.90133 | 5723 ft | 213 kts | 349° |
| 2026-05-06 21:26 | 36.05702 | -114.90860 | 5509 ft | 214 kts | 329° |
| 2026-05-06 21:27 | 36.06833 | -114.92041 | 5286 ft | 212 kts | 310° |
| 2026-05-06 21:27 | 36.07390 | -114.93687 | 4984 ft | 212 kts | 277° |
| 2026-05-06 21:27 | 36.07361 | -114.95493 | 4700 ft | 208 kts | 270° |
| 2026-05-06 21:27 | 36.07355 | -114.97278 | 4410 ft | 205 kts | 272° |
| 2026-05-06 21:28 | 36.07350 | -114.98998 | 4152 ft | 201 kts | 271° |
| 2026-05-06 21:28 | 36.07332 | -115.00712 | 3886 ft | 197 kts | 271° |
| 2026-05-06 21:28 | 36.07348 | -115.02387 | 3641 ft | 193 kts | 272° |
| 2026-05-06 21:28 | 36.07352 | -115.03980 | 3402 ft | 179 kts | 271° |
| 2026-05-06 21:29 | 36.07347 | -115.05458 | 3175 ft | 164 kts | 271° |
| 2026-05-06 21:29 | 36.07352 | -115.06858 | 2964 ft | 161 kts | 271° |
| 2026-05-06 21:29 | 36.07362 | -115.08238 | 2775 ft | 162 kts | 271° |
| 2026-05-06 21:29 | 36.07365 | -115.09637 | 2560 ft | 164 kts | 270° |
| 2026-05-06 21:30 | 36.07362 | -115.11046 | 2344 ft | 163 kts | 270° |
| 2026-05-06 21:30 | 36.07365 | -115.12434 | 2144 ft | 163 kts | 270° |
| 2026-05-06 21:30 | 36.07364 | -115.13766 | 2092 ft | 127 kts | 270° |
| 2026-05-06 21:30 | 36.07364 | -115.14530 | 2115 ft | 55 kts | 270° |
| 2026-05-06 21:31 | 36.07393 | -115.14855 | 2126 ft | 27 kts | 291° |
| 2026-05-06 21:31 | 36.07447 | -115.15005 | 2131 ft | 16 kts | 301° |
| 2026-05-06 21:31 | 36.07518 | -115.15120 | 2134 ft | 19 kts | 322° |
| 2026-05-06 21:31 | 36.07676 | -115.15217 | 2135 ft | 28 kts | 336° |
| 2026-05-06 21:32 | 36.07839 | -115.15305 | 2136 ft | 22 kts | 359° |
| 2026-05-06 21:32 | 36.07867 | -115.14926 | 2123 ft | 26 kts | 97° |
| 2026-05-06 21:32 | 36.07954 | -115.14837 | 2119 ft | 22 kts | 336° |
| 2026-05-06 21:33 | 36.08081 | -115.14912 | 2121 ft | 17 kts | 331° |
| 2026-05-06 21:33 | 36.08105 | -115.15023 | 2124 ft | 11 kts | 267° |
| 2026-05-06 21:33 | 36.08118 | -115.15092 | 2126 ft | 8 kts | 311° |
| 2026-05-06 21:33 | 36.08188 | -115.15113 | 2125 ft | 11 kts | 13° |
| 2026-05-06 21:34 | 36.08226 | -115.15102 | 2125 ft | 2 kts | 14° |
| 2026-05-06 21:34 | 36.08227 | -115.15102 | 2125 ft | 0 kts | 14° |